createdAt,value
2023-05-15T00:00:45.665Z,12.19
2023-05-15T00:03:13.108Z,12.19
2023-05-15T00:05:40.620Z,12.17
2023-05-15T00:08:07.578Z,12.14
2023-05-15T00:10:34.565Z,12.13
2023-05-15T00:13:02.013Z,12.07
2023-05-15T00:15:29.174Z,12.00
2023-05-15T00:17:56.415Z,11.98
2023-05-15T00:20:23.820Z,11.99
2023-05-15T00:22:51.258Z,11.98
2023-05-15T00:25:19.830Z,11.92
2023-05-15T00:27:47.357Z,11.87
2023-05-15T00:30:14.936Z,11.85
2023-05-15T00:32:42.023Z,11.84
2023-05-15T00:35:09.434Z,11.83
2023-05-15T00:37:36.226Z,11.84
2023-05-15T00:40:03.271Z,11.89
2023-05-15T00:42:31.183Z,11.85
2023-05-15T00:45:00.946Z,11.82
2023-05-15T00:47:29.387Z,11.84
2023-05-15T00:49:57.505Z,11.81
2023-05-15T00:52:24.961Z,11.84
2023-05-15T00:54:51.832Z,11.83
2023-05-15T00:57:21.762Z,11.85
2023-05-15T00:59:49.911Z,11.82
2023-05-15T01:02:19.833Z,11.77
2023-05-15T01:04:47.189Z,11.75
2023-05-15T01:07:14.300Z,11.76
2023-05-15T01:09:45.014Z,11.73
2023-05-15T01:12:15.253Z,11.70
2023-05-15T01:14:42.366Z,11.68
2023-05-15T01:17:09.495Z,11.68
2023-05-15T01:19:37.023Z,11.65
2023-05-15T01:22:04.366Z,11.65
2023-05-15T01:24:56.836Z,11.65
2023-05-15T01:27:35.965Z,11.63
2023-05-15T01:30:08.447Z,11.63
2023-05-15T01:32:51.439Z,11.61
2023-05-15T01:35:40.079Z,11.60
2023-05-15T01:38:24.415Z,11.61
2023-05-15T01:41:16.526Z,11.57
2023-05-15T01:43:46.261Z,11.56
2023-05-15T01:46:20.313Z,11.56
2023-05-15T01:48:48.532Z,11.56
2023-05-15T01:51:18.173Z,11.57
2023-05-15T01:53:47.267Z,11.54
2023-05-15T01:56:15.931Z,11.52
2023-05-15T01:58:45.056Z,11.50
2023-05-15T02:01:13.561Z,11.55
2023-05-15T02:03:42.188Z,11.52
2023-05-15T02:06:10.172Z,11.52
2023-05-15T02:08:37.495Z,11.55
2023-05-15T02:11:05.924Z,11.61
2023-05-15T02:13:34.648Z,11.64
2023-05-15T02:16:01.684Z,11.59
2023-05-15T02:18:29.363Z,11.61
2023-05-15T02:20:56.280Z,11.60
2023-05-15T02:23:23.310Z,11.62
2023-05-15T02:26:21.706Z,11.56
2023-05-15T02:29:11.426Z,11.53
2023-05-15T02:32:00.053Z,11.54
2023-05-15T02:34:32.531Z,11.59
2023-05-15T02:37:02.216Z,11.60
2023-05-15T02:39:30.366Z,11.57
2023-05-15T02:41:58.243Z,11.60
2023-05-15T02:44:26.784Z,11.62
2023-05-15T02:46:54.657Z,11.60
2023-05-15T02:49:22.603Z,11.58
2023-05-15T02:51:49.447Z,11.53
2023-05-15T02:54:16.890Z,11.53
2023-05-15T02:56:43.689Z,11.54
2023-05-15T02:59:10.894Z,11.58
2023-05-15T03:01:37.779Z,11.60
2023-05-15T03:04:05.010Z,11.64
2023-05-15T03:06:31.874Z,11.67
2023-05-15T03:08:58.743Z,11.71
2023-05-15T03:11:25.537Z,11.75
2023-05-15T03:13:52.426Z,11.82
2023-05-15T03:16:19.285Z,11.83
2023-05-15T03:18:46.806Z,11.83
2023-05-15T03:21:14.626Z,11.85
2023-05-15T03:23:42.091Z,11.84
2023-05-15T03:26:09.244Z,11.82
2023-05-15T03:28:36.151Z,11.75
2023-05-15T03:31:05.374Z,11.72
2023-05-15T03:33:32.300Z,11.64
2023-05-15T03:36:00.089Z,11.56
2023-05-15T03:38:31.834Z,11.51
2023-05-15T03:40:58.764Z,11.48
2023-05-15T03:43:25.890Z,11.46
2023-05-15T03:45:52.943Z,11.42
2023-05-15T03:48:20.092Z,11.42
2023-05-15T03:50:47.243Z,11.42
2023-05-15T03:53:14.457Z,11.40
2023-05-15T03:55:41.746Z,11.36
2023-05-15T03:58:08.914Z,11.34
2023-05-15T04:00:35.953Z,11.39
2023-05-15T04:03:03.027Z,11.42
2023-05-15T04:05:30.263Z,11.45
2023-05-15T04:07:57.288Z,11.46
2023-05-15T04:10:24.399Z,11.53
2023-05-15T04:12:52.302Z,11.60
2023-05-15T04:15:21.863Z,11.67
2023-05-15T04:17:51.102Z,11.73
2023-05-15T04:20:20.787Z,11.74
2023-05-15T04:22:48.368Z,11.73
2023-05-15T04:25:16.459Z,11.71
2023-05-15T04:27:44.626Z,11.67
2023-05-15T04:30:12.901Z,11.63
2023-05-15T04:32:40.748Z,11.60
2023-05-15T04:35:10.476Z,11.61
2023-05-15T04:37:38.914Z,11.63
2023-05-15T04:40:08.346Z,11.59
2023-05-15T04:42:37.729Z,11.59
2023-05-15T04:45:06.269Z,11.60
2023-05-15T04:47:33.159Z,11.60
2023-05-15T04:50:00.175Z,11.59
2023-05-15T04:52:27.336Z,11.61
2023-05-15T04:54:56.189Z,11.65
2023-05-15T04:57:23.684Z,11.70
2023-05-15T04:59:50.619Z,11.75
2023-05-15T05:02:22.764Z,11.77
2023-05-15T05:04:50.339Z,11.84
2023-05-15T05:07:17.179Z,11.88
2023-05-15T05:09:44.525Z,11.92
2023-05-15T05:12:11.810Z,11.99
2023-05-15T05:14:40.921Z,12.08
2023-05-15T05:17:08.124Z,12.11
2023-05-15T05:19:35.109Z,12.18
2023-05-15T05:22:05.476Z,12.24
2023-05-15T05:24:33.074Z,12.31
2023-05-15T05:27:00.756Z,12.30
2023-05-15T05:29:27.761Z,12.31
2023-05-15T05:31:54.816Z,12.30
2023-05-15T05:34:22.131Z,12.28
2023-05-15T05:36:49.762Z,12.21
2023-05-15T05:39:17.412Z,12.17
2023-05-15T05:41:45.184Z,12.13
2023-05-15T05:44:12.089Z,12.15
2023-05-15T05:46:39.045Z,12.18
2023-05-15T05:49:06.272Z,12.11
2023-05-15T05:51:33.206Z,12.08
2023-05-15T05:54:00.158Z,12.08
2023-05-15T05:56:27.143Z,12.10
2023-05-15T05:58:54.761Z,12.16
2023-05-15T06:01:21.706Z,12.23
2023-05-15T06:03:49.028Z,12.19
2023-05-15T06:06:16.104Z,12.15
2023-05-15T06:08:42.935Z,12.10
2023-05-15T06:11:09.786Z,12.09
2023-05-15T06:13:37.266Z,12.17
2023-05-15T06:16:04.788Z,12.23
2023-05-15T06:18:31.644Z,12.27
2023-05-15T06:21:00.655Z,12.29
2023-05-15T06:23:28.078Z,12.27
2023-05-15T06:25:55.027Z,12.26
2023-05-15T06:28:21.969Z,12.33
2023-05-15T06:30:48.983Z,12.39
2023-05-15T06:33:15.978Z,12.42
2023-05-15T06:35:43.037Z,12.45
2023-05-15T06:38:10.069Z,12.51
2023-05-15T06:40:37.109Z,12.54
2023-05-15T06:43:04.148Z,12.54
2023-05-15T06:45:31.731Z,12.54
2023-05-15T06:48:01.457Z,12.55
2023-05-15T06:50:28.769Z,12.58
2023-05-15T06:52:55.708Z,12.59
2023-05-15T06:55:22.691Z,12.57
2023-05-15T06:57:49.598Z,12.61
2023-05-15T07:00:17.101Z,12.62
2023-05-15T07:02:44.289Z,12.64
2023-05-15T07:05:11.849Z,12.68
2023-05-15T07:07:38.910Z,12.76
2023-05-15T07:10:07.393Z,12.81
2023-05-15T07:12:34.652Z,12.86
2023-05-15T07:15:01.549Z,12.88
2023-05-15T07:17:28.890Z,12.93
2023-05-15T07:19:56.200Z,13.03
2023-05-15T07:22:23.349Z,13.09
2023-05-15T07:24:50.392Z,13.09
2023-05-15T07:27:17.444Z,13.07
2023-05-15T07:29:44.350Z,13.11
2023-05-15T07:32:11.713Z,13.13
2023-05-15T07:34:38.642Z,13.18
2023-05-15T07:37:06.189Z,13.21
2023-05-15T07:39:33.164Z,13.24
2023-05-15T07:42:00.179Z,13.23
2023-05-15T07:44:27.160Z,13.21
2023-05-15T07:46:56.697Z,13.22
2023-05-15T07:49:23.718Z,13.29
2023-05-15T07:51:50.708Z,13.28
2023-05-15T07:54:17.583Z,13.25
2023-05-15T07:56:44.510Z,13.27
2023-05-15T07:59:11.378Z,13.34
2023-05-15T08:01:38.385Z,13.43
2023-05-15T08:04:08.946Z,13.54
2023-05-15T08:06:41.533Z,13.54
2023-05-15T08:09:09.856Z,13.46
2023-05-15T08:11:37.229Z,13.38
2023-05-15T08:14:04.447Z,13.38
2023-05-15T08:16:31.575Z,13.39
2023-05-15T08:19:01.913Z,13.40
2023-05-15T08:21:30.225Z,13.38
2023-05-15T08:23:58.123Z,13.28
2023-05-15T08:26:25.123Z,13.25
2023-05-15T08:28:52.071Z,13.23
2023-05-15T08:31:18.936Z,13.27
2023-05-15T08:33:46.372Z,13.39
2023-05-15T08:36:13.646Z,13.41
2023-05-15T08:38:40.678Z,13.39
2023-05-15T08:41:40.878Z,13.40
2023-05-15T08:44:10.984Z,13.42
2023-05-15T08:46:38.843Z,13.40
2023-05-15T08:49:29.042Z,13.43
2023-05-15T08:51:56.707Z,13.50
2023-05-15T08:54:24.906Z,13.55
2023-05-15T08:56:52.475Z,13.63
2023-05-15T08:59:22.072Z,13.67
2023-05-15T09:01:50.172Z,13.69
2023-05-15T09:04:17.150Z,13.69
2023-05-15T09:06:45.420Z,13.73
2023-05-15T09:09:14.117Z,13.75
2023-05-15T09:11:45.267Z,13.74
2023-05-15T09:14:12.725Z,13.79
2023-05-15T09:16:40.087Z,13.95
2023-05-15T09:19:07.880Z,14.15
2023-05-15T09:21:34.996Z,14.29
2023-05-15T09:24:26.641Z,14.36
2023-05-15T09:27:05.727Z,14.33
2023-05-15T09:29:34.961Z,14.34
2023-05-15T09:32:08.278Z,14.30
2023-05-15T09:34:37.440Z,14.16
2023-05-15T09:37:07.209Z,14.10
2023-05-15T09:39:40.857Z,14.04
2023-05-15T09:42:12.059Z,13.97
2023-05-15T09:44:46.721Z,13.96
2023-05-15T09:47:15.087Z,13.94
2023-05-15T09:49:45.042Z,13.94
2023-05-15T09:52:12.214Z,13.98
2023-05-15T09:54:39.593Z,14.10
2023-05-15T09:57:11.798Z,14.21
2023-05-15T09:59:49.427Z,14.41
2023-05-15T10:02:32.927Z,14.68
2023-05-15T10:05:00.069Z,14.90
2023-05-15T10:07:36.948Z,15.07
2023-05-15T10:10:05.611Z,15.19
2023-05-15T10:12:33.999Z,15.24
2023-05-15T10:15:03.703Z,15.13
2023-05-15T10:17:36.160Z,15.07
2023-05-15T10:20:07.388Z,15.02
2023-05-15T10:22:38.910Z,14.95
2023-05-15T10:25:47.379Z,15.02
2023-05-15T10:28:16.414Z,15.26
2023-05-15T10:30:43.681Z,15.39
2023-05-15T10:33:13.832Z,15.37
2023-05-15T10:35:40.987Z,15.44
2023-05-15T10:38:08.101Z,15.49
2023-05-15T10:40:39.785Z,15.46
2023-05-15T10:43:09.676Z,15.52
2023-05-15T10:45:36.868Z,15.61
2023-05-15T10:48:06.393Z,15.65
2023-05-15T10:50:33.997Z,15.62
2023-05-15T10:53:00.975Z,15.66
2023-05-15T10:55:27.941Z,15.69
2023-05-15T10:57:55.373Z,15.87
2023-05-15T11:00:27.939Z,16.11
2023-05-15T11:02:57.360Z,16.26
2023-05-15T11:05:26.215Z,16.39
2023-05-15T11:08:32.565Z,16.52
2023-05-15T11:10:59.622Z,16.92
2023-05-15T11:13:27.009Z,17.23
2023-05-15T11:15:54.551Z,17.32
2023-05-15T11:18:21.682Z,17.35
2023-05-15T11:20:54.512Z,17.39
2023-05-15T11:23:23.000Z,17.41
2023-05-15T11:26:01.851Z,17.42
2023-05-15T11:28:30.788Z,17.29
2023-05-15T11:31:07.241Z,17.13
2023-05-15T11:33:34.881Z,17.02
2023-05-15T11:36:05.670Z,17.07
2023-05-15T11:38:37.349Z,17.17
2023-05-15T11:41:18.297Z,17.29
2023-05-15T11:43:46.011Z,17.41
2023-05-15T11:46:14.844Z,17.38
2023-05-15T11:48:48.175Z,17.28
2023-05-15T11:51:15.516Z,17.23
2023-05-15T11:53:44.081Z,17.23
2023-05-15T11:56:19.200Z,17.17
2023-05-15T11:58:58.845Z,17.05
2023-05-15T12:01:26.738Z,16.99
2023-05-15T12:03:57.203Z,17.04
2023-05-15T12:06:36.507Z,17.11
2023-05-15T12:09:15.699Z,17.04
2023-05-15T12:12:16.451Z,16.95
2023-05-15T12:14:52.292Z,16.97
2023-05-15T12:17:26.877Z,17.09
2023-05-15T12:20:04.099Z,17.28
2023-05-15T12:22:43.833Z,17.45
2023-05-15T12:25:14.765Z,17.56
2023-05-15T12:28:01.196Z,17.60
2023-05-15T12:30:43.831Z,17.65
2023-05-15T12:33:27.201Z,17.66
2023-05-15T12:36:03.936Z,17.62
2023-05-15T12:38:34.833Z,17.64
2023-05-15T12:41:05.944Z,17.66
2023-05-15T12:43:33.278Z,17.66
2023-05-15T12:46:00.693Z,17.63
2023-05-15T12:48:32.764Z,17.51
2023-05-15T12:51:07.879Z,17.35
2023-05-15T12:53:35.600Z,17.24
2023-05-15T12:56:03.401Z,17.16
2023-05-15T12:58:30.528Z,17.13
2023-05-15T13:00:58.269Z,17.07
2023-05-15T13:03:26.749Z,16.94
2023-05-15T13:05:54.217Z,16.83
2023-05-15T13:08:21.687Z,16.75
2023-05-15T13:10:57.317Z,16.67
2023-05-15T13:13:24.365Z,16.65
2023-05-15T13:15:51.557Z,16.70
2023-05-15T13:18:19.076Z,16.79
2023-05-15T13:20:54.163Z,16.90
2023-05-15T13:23:25.237Z,17.07
2023-05-15T13:25:52.676Z,17.37
2023-05-15T13:28:20.101Z,17.49
2023-05-15T13:30:47.214Z,17.48
2023-05-15T13:33:14.288Z,17.50
2023-05-15T13:35:43.634Z,17.53
2023-05-15T13:38:12.049Z,17.59
2023-05-15T13:40:40.182Z,17.60
2023-05-15T13:43:07.201Z,17.48
2023-05-15T13:45:34.768Z,17.42
2023-05-15T13:48:02.634Z,17.40
2023-05-15T13:50:30.365Z,17.25
2023-05-15T13:52:57.599Z,17.16
2023-05-15T13:55:29.731Z,17.21
2023-05-15T13:58:00.263Z,17.44
2023-05-15T14:00:27.511Z,17.71
2023-05-15T14:02:54.733Z,17.95
2023-05-15T14:05:22.502Z,18.10
2023-05-15T14:07:49.951Z,18.26
2023-05-15T14:10:17.387Z,18.32
2023-05-15T14:12:44.623Z,18.31
2023-05-15T14:15:12.440Z,18.32
2023-05-15T14:17:40.329Z,18.28
2023-05-15T14:20:09.008Z,18.40
2023-05-15T14:22:36.458Z,18.42
2023-05-15T14:25:04.610Z,18.43
2023-05-15T14:27:32.192Z,18.46
2023-05-15T14:29:59.113Z,18.42
2023-05-15T14:32:26.095Z,18.32
2023-05-15T14:34:53.671Z,18.18
2023-05-15T14:37:20.966Z,18.01
2023-05-15T14:39:48.373Z,17.88
2023-05-15T14:42:17.710Z,17.63
2023-05-15T14:44:45.632Z,17.47
2023-05-15T14:47:13.695Z,17.43
2023-05-15T14:49:41.428Z,17.36
2023-05-15T14:52:10.041Z,17.24
2023-05-15T14:54:38.879Z,17.15
2023-05-15T14:57:07.233Z,17.03
2023-05-15T14:59:34.265Z,16.87
2023-05-15T15:02:01.332Z,16.71
2023-05-15T15:04:31.138Z,16.59
2023-05-15T15:06:58.448Z,16.49
2023-05-15T15:09:28.370Z,16.48
2023-05-15T15:11:56.589Z,16.50
2023-05-15T15:14:23.746Z,16.37
2023-05-15T15:16:53.934Z,16.27
2023-05-15T15:19:31.433Z,16.23
2023-05-15T15:22:08.359Z,16.19
2023-05-15T15:24:35.513Z,16.19
2023-05-15T15:27:02.679Z,16.21
2023-05-15T15:29:29.780Z,16.29
2023-05-15T15:31:56.617Z,16.33
2023-05-15T15:34:24.131Z,16.32
2023-05-15T15:36:51.810Z,16.28
2023-05-15T15:39:18.933Z,16.25
2023-05-15T15:41:46.297Z,16.21
2023-05-15T15:44:13.397Z,16.16
2023-05-15T15:46:40.317Z,16.14
2023-05-15T15:49:07.977Z,16.15
2023-05-15T15:51:35.091Z,16.19
2023-05-15T15:54:02.201Z,16.23
2023-05-15T15:56:29.327Z,16.25
2023-05-15T15:58:56.625Z,16.29
2023-05-15T16:01:24.099Z,16.29
2023-05-15T16:03:51.438Z,16.30
2023-05-15T16:06:18.690Z,16.25
2023-05-15T16:08:45.739Z,16.15
2023-05-15T16:11:12.775Z,16.12
2023-05-15T16:13:41.081Z,16.08
2023-05-15T16:16:08.853Z,15.94
2023-05-15T16:18:36.502Z,15.82
2023-05-15T16:21:04.249Z,15.70
2023-05-15T16:23:35.677Z,15.62
2023-05-15T16:26:05.362Z,15.51
2023-05-15T16:28:32.783Z,15.48
2023-05-15T16:31:00.477Z,15.52
2023-05-15T16:33:28.146Z,15.58
2023-05-15T16:35:55.574Z,15.64
2023-05-15T16:38:23.381Z,15.72
2023-05-15T16:40:50.761Z,15.69
2023-05-15T16:43:18.033Z,15.62
2023-05-15T16:45:45.298Z,15.55
2023-05-15T16:48:12.262Z,15.43
2023-05-15T16:50:39.491Z,15.33
2023-05-15T16:53:07.915Z,15.21
2023-05-15T16:55:35.251Z,15.13
2023-05-15T16:58:02.575Z,15.06
2023-05-15T17:00:29.827Z,15.01
2023-05-15T17:02:56.911Z,14.96
2023-05-15T17:05:24.133Z,14.91
2023-05-15T17:07:51.500Z,14.87
2023-05-15T17:10:18.782Z,14.83
2023-05-15T17:12:45.977Z,14.80
2023-05-15T17:15:13.540Z,14.77
2023-05-15T17:17:40.700Z,14.78
2023-05-15T17:20:08.877Z,14.79
2023-05-15T17:22:36.220Z,14.78
2023-05-15T17:25:04.660Z,14.75
2023-05-15T17:27:31.653Z,14.71
2023-05-15T17:29:58.783Z,14.65
2023-05-15T17:32:26.216Z,14.60
2023-05-15T17:34:53.414Z,14.53
2023-05-15T17:37:20.529Z,14.46
2023-05-15T17:39:47.856Z,14.41
2023-05-15T17:42:14.852Z,14.39
2023-05-15T17:44:41.941Z,14.37
2023-05-15T17:47:10.465Z,14.34
2023-05-15T17:49:39.498Z,14.29
2023-05-15T17:52:07.689Z,14.29
2023-05-15T17:54:34.928Z,14.29
2023-05-15T17:57:02.481Z,14.26
2023-05-15T17:59:31.414Z,14.25
2023-05-15T18:01:58.400Z,14.23
2023-05-15T18:04:25.784Z,14.20
2023-05-15T18:06:52.844Z,14.17
2023-05-15T18:09:23.352Z,14.14
2023-05-15T18:11:51.641Z,14.09
2023-05-15T18:14:18.572Z,14.06
2023-05-15T18:16:45.405Z,14.00
2023-05-15T18:19:13.041Z,13.92
2023-05-15T18:21:40.415Z,13.83
2023-05-15T18:24:08.140Z,13.74
2023-05-15T18:26:35.132Z,13.63
2023-05-15T18:29:02.073Z,13.56
2023-05-15T18:31:29.309Z,13.50
2023-05-15T18:33:56.934Z,13.45
2023-05-15T18:36:24.251Z,13.39
2023-05-15T18:38:51.070Z,13.36
2023-05-15T18:41:17.929Z,13.34
2023-05-15T18:43:44.746Z,13.30
2023-05-15T18:46:11.932Z,13.28
2023-05-15T18:48:38.737Z,13.27
2023-05-15T18:51:05.897Z,13.21
2023-05-15T18:53:32.950Z,13.15
2023-05-15T18:56:00.063Z,13.13
2023-05-15T18:58:27.092Z,13.07
2023-05-15T19:00:54.331Z,13.02
2023-05-15T19:03:21.547Z,12.97
2023-05-15T19:05:48.573Z,12.92
2023-05-15T19:08:15.970Z,12.87
2023-05-15T19:10:51.416Z,12.83
2023-05-15T19:13:19.295Z,12.78
2023-05-15T19:15:53.168Z,12.75
2023-05-15T19:18:20.289Z,12.70
2023-05-15T19:20:50.717Z,12.66
2023-05-15T19:23:17.953Z,12.63
2023-05-15T19:25:45.366Z,12.60
2023-05-15T19:28:13.374Z,12.58
2023-05-15T19:30:40.372Z,12.55
2023-05-15T19:33:07.474Z,12.54
2023-05-15T19:35:36.712Z,12.56
2023-05-15T19:38:04.620Z,12.58
2023-05-15T19:40:31.748Z,12.59
2023-05-15T19:42:58.816Z,12.60
2023-05-15T19:45:25.895Z,12.61
2023-05-15T19:47:52.984Z,12.59
2023-05-15T19:50:20.263Z,12.58
2023-05-15T19:52:47.821Z,12.56
2023-05-15T19:55:15.517Z,12.53
2023-05-15T19:57:45.271Z,12.50
2023-05-15T20:00:13.355Z,12.47
2023-05-15T20:02:41.648Z,12.44
2023-05-15T20:05:09.291Z,12.42
2023-05-15T20:07:37.458Z,12.38
2023-05-15T20:10:05.526Z,12.35
2023-05-15T20:12:32.573Z,12.31
2023-05-15T20:14:59.514Z,12.27
2023-05-15T20:17:26.374Z,12.24
2023-05-15T20:19:54.368Z,12.22
2023-05-15T20:22:21.355Z,12.17
2023-05-15T20:24:48.772Z,12.15
2023-05-15T20:27:16.720Z,12.11
2023-05-15T20:29:43.660Z,12.07
2023-05-15T20:32:10.786Z,12.03
2023-05-15T20:34:37.628Z,12.01
2023-05-15T20:37:04.764Z,11.98
2023-05-15T20:39:31.981Z,11.96
2023-05-15T20:41:58.967Z,11.93
2023-05-15T20:44:26.214Z,11.90
2023-05-15T20:46:53.152Z,11.87
2023-05-15T20:49:20.048Z,11.84
2023-05-15T20:51:48.956Z,11.81
2023-05-15T20:54:16.445Z,11.77
2023-05-15T20:56:43.594Z,11.75
2023-05-15T20:59:10.533Z,11.73
2023-05-15T21:01:37.428Z,11.72
2023-05-15T21:04:04.650Z,11.68
2023-05-15T21:06:32.079Z,11.66
2023-05-15T21:08:58.912Z,11.64
2023-05-15T21:11:26.062Z,11.60
2023-05-15T21:13:52.903Z,11.58
2023-05-15T21:16:19.781Z,11.56
2023-05-15T21:18:47.281Z,11.53
2023-05-15T21:21:14.170Z,11.51
2023-05-15T21:23:41.349Z,11.49
2023-05-15T21:26:08.653Z,11.46
2023-05-15T21:28:35.598Z,11.42
2023-05-15T21:31:07.814Z,11.40
2023-05-15T21:33:35.935Z,11.38
2023-05-15T21:36:03.902Z,11.36
2023-05-15T21:38:31.655Z,11.34
2023-05-15T21:40:59.629Z,11.32
2023-05-15T21:43:26.561Z,11.30
2023-05-15T21:45:57.212Z,11.28
2023-05-15T21:48:24.280Z,11.25
2023-05-15T21:50:51.923Z,11.20
2023-05-15T21:53:18.841Z,11.17
2023-05-15T21:55:45.780Z,11.14
2023-05-15T21:58:12.956Z,11.12
2023-05-15T22:00:40.585Z,11.09
2023-05-15T22:03:07.986Z,11.05
2023-05-15T22:05:34.986Z,11.01
2023-05-15T22:08:02.123Z,10.98
2023-05-15T22:10:29.031Z,10.96
2023-05-15T22:12:56.222Z,10.97
2023-05-15T22:15:22.962Z,10.96
2023-05-15T22:17:50.150Z,10.96
2023-05-15T22:20:19.317Z,10.96
2023-05-15T22:22:46.650Z,10.96
2023-05-15T22:25:13.916Z,10.96
2023-05-15T22:27:41.297Z,10.96
2023-05-15T22:30:09.253Z,10.96
2023-05-15T22:32:36.743Z,10.95
2023-05-15T22:35:04.867Z,10.94
2023-05-15T22:37:31.913Z,10.94
2023-05-15T22:39:58.868Z,10.93
2023-05-15T22:42:28.053Z,10.91
2023-05-15T22:44:58.188Z,10.90
2023-05-15T22:47:28.377Z,10.90
2023-05-15T22:49:55.350Z,10.89
2023-05-15T22:52:22.470Z,10.88
2023-05-15T22:54:49.447Z,10.88
2023-05-15T22:57:16.244Z,10.88
2023-05-15T22:59:43.706Z,10.87
2023-05-15T23:02:11.510Z,10.86
2023-05-15T23:04:38.550Z,10.86
2023-05-15T23:07:05.667Z,10.86
2023-05-15T23:09:32.596Z,10.86
2023-05-15T23:12:40.926Z,10.86
2023-05-15T23:15:10.533Z,10.86
2023-05-15T23:17:37.585Z,10.84
2023-05-15T23:20:07.611Z,10.83
2023-05-15T23:22:34.516Z,10.81
2023-05-15T23:25:01.367Z,10.81
2023-05-15T23:27:28.504Z,10.80
2023-05-15T23:29:55.376Z,10.78
2023-05-15T23:32:29.803Z,10.77
2023-05-15T23:35:02.901Z,10.76
2023-05-15T23:37:29.687Z,10.73
2023-05-15T23:39:56.659Z,10.71
2023-05-15T23:42:24.347Z,10.69
2023-05-15T23:44:51.642Z,10.69
2023-05-15T23:47:18.590Z,10.70
2023-05-15T23:49:45.652Z,10.70
2023-05-15T23:52:12.503Z,10.71
2023-05-15T23:54:40.367Z,10.71
2023-05-15T23:57:07.335Z,10.72
2023-05-15T23:59:34.265Z,10.72
